Time;durP1;ratioP1;P1;durP2;ratioP2;P2;SDS_P1;SDS_P2;PMS_P1;PMS_P2;Temp;Humidity;BMP_temperature;BMP_pressure;BME280_temperature;BME280_humidity;BME280_pressure;Samples;Min_cycle;Max_cycle;Signal;HPM_P1;HPM_P2
2022/11/24 00:00:31;;;;;;;22.83;4.30;;;10.80;99.90;;;;;;4970026;28;20129;-85
2022/11/24 00:02:59;;;;;;;20.83;4.57;;;10.80;99.90;;;;;;4964808;28;20046;-85
2022/11/24 00:05:26;;;;;;;16.60;3.70;;;10.90;99.90;;;;;;4951183;28;20050;-85
2022/11/24 00:07:53;;;;;;;16.08;3.50;;;10.80;99.90;;;;;;4969197;28;20089;-85
2022/11/24 00:10:19;;;;;;;16.15;4.00;;;10.80;99.90;;;;;;4968302;28;20705;-85
2022/11/24 00:12:48;;;;;;;23.50;3.90;;;10.80;99.90;;;;;;4966947;28;20045;-85
2022/11/24 00:15:15;;;;;;;18.70;4.95;;;10.80;99.90;;;;;;4968936;28;20121;-86
2022/11/24 00:17:42;;;;;;;17.98;3.72;;;10.80;99.90;;;;;;4969805;28;20125;-86
2022/11/24 00:20:10;;;;;;;16.42;3.90;;;10.80;99.90;;;;;;4940572;28;20047;-85
2022/11/24 00:22:37;;;;;;;17.20;4.00;;;10.80;99.90;;;;;;4965108;28;20039;-85
2022/11/24 00:25:04;;;;;;;18.20;4.15;;;10.80;99.90;;;;;;4968849;28;20047;-85
2022/11/24 00:27:31;;;;;;;19.13;4.72;;;10.70;99.90;;;;;;4967524;28;20039;-86
2022/11/24 00:29:59;;;;;;;19.77;4.13;;;10.70;99.90;;;;;;4969607;28;20058;-85
2022/11/24 00:32:28;;;;;;;16.80;3.63;;;10.70;99.90;;;;;;4952248;28;20050;-86
2022/11/24 00:34:55;;;;;;;23.63;4.05;;;10.70;99.90;;;;;;4969627;28;20050;-86
2022/11/24 00:37:22;;;;;;;17.92;4.15;;;10.70;99.90;;;;;;4952588;28;20050;-85
2022/11/24 00:39:49;;;;;;;20.88;3.97;;;10.70;99.90;;;;;;4967023;28;20078;-85
2022/11/24 00:42:16;;;;;;;16.05;3.78;;;10.70;99.90;;;;;;4951850;28;20142;-86
2022/11/24 00:44:43;;;;;;;22.80;4.30;;;10.70;99.90;;;;;;4969730;28;20506;-85
2022/11/24 00:47:11;;;;;;;18.77;3.80;;;10.70;99.90;;;;;;4952413;28;20142;-85
2022/11/24 00:49:38;;;;;;;24.27;4.15;;;10.70;99.90;;;;;;4969587;28;20046;-85
2022/11/24 00:52:05;;;;;;;19.05;3.80;;;10.60;99.90;;;;;;4966047;28;20362;-85
2022/11/24 00:54:32;;;;;;;17.33;3.78;;;10.70;99.90;;;;;;4951284;28;20053;-85
2022/11/24 00:56:59;;;;;;;25.20;4.45;;;10.60;99.90;;;;;;4968908;28;20050;-86
2022/11/24 00:59:26;;;;;;;21.00;4.07;;;10.60;99.90;;;;;;4951587;28;20058;-86
2022/11/24 01:01:53;;;;;;;20.55;5.05;;;10.60;99.90;;;;;;4951036;28;20077;-85
2022/11/24 01:04:22;;;;;;;18.60;3.47;;;10.60;99.90;;;;;;4967015;28;20055;-85
2022/11/24 01:06:48;;;;;;;21.27;4.53;;;10.60;99.90;;;;;;4966824;28;20046;-85
2022/11/24 01:09:15;;;;;;;16.60;3.60;;;10.60;99.90;;;;;;4951048;28;20054;-86
2022/11/24 01:14:27;;;;;;;18.08;3.35;;;10.50;99.90;;;;;;4971909;28;20561;-85
2022/11/24 01:16:54;;;;;;;24.92;4.10;;;10.60;99.90;;;;;;4971990;28;20046;-85
2022/11/24 01:19:23;;;;;;;18.48;4.10;;;10.50;99.90;;;;;;4969746;28;20065;-85
2022/11/24 01:21:50;;;;;;;18.98;3.92;;;10.50;99.90;;;;;;4971203;28;20057;-85
2022/11/24 01:24:17;;;;;;;22.42;4.35;;;10.50;99.90;;;;;;4969714;28;20054;-85
2022/11/24 01:26:44;;;;;;;20.42;3.88;;;10.50;99.90;;;;;;4969587;28;20122;-86
2022/11/24 01:29:11;;;;;;;17.23;3.92;;;10.50;99.90;;;;;;4968902;28;20054;-86
2022/11/24 01:31:38;;;;;;;22.88;4.28;;;10.50;99.90;;;;;;4970221;28;20047;-86
2022/11/24 01:34:05;;;;;;;21.13;4.13;;;10.50;99.90;;;;;;4953047;28;20119;-85
2022/11/24 01:36:33;;;;;;;22.63;4.13;;;10.50;99.90;;;;;;4971534;28;20125;-86
2022/11/24 01:39:00;;;;;;;16.55;3.65;;;10.50;99.90;;;;;;4969861;28;20043;-86
2022/11/24 01:41:27;;;;;;;16.55;3.55;;;10.50;99.90;;;;;;4969652;28;20074;-86
2022/11/24 01:43:55;;;;;;;15.18;3.60;;;10.60;99.90;;;;;;4970062;28;20122;-86
2022/11/24 01:46:25;;;;;;;17.40;3.83;;;10.60;99.90;;;;;;4969157;28;20042;-86
2022/11/24 01:48:58;;;;;;;17.08;4.57;;;10.60;99.90;;;;;;4971447;28;20102;-85
2022/11/24 01:54:10;;;;;;;18.58;3.63;;;10.50;99.90;;;;;;5127136;27;20896;-85
2022/11/24 01:56:40;;;;;;;20.52;3.67;;;10.60;99.90;;;;;;5127222;27;20053;-86
2022/11/24 01:59:08;;;;;;;19.45;3.95;;;10.60;99.90;;;;;;5127153;27;20042;-85
2022/11/24 02:01:35;;;;;;;19.58;3.80;;;10.60;99.90;;;;;;5108948;27;20054;-85
2022/11/24 02:04:04;;;;;;;25.10;4.15;;;10.60;99.90;;;;;;5106212;28;20124;-85
2022/11/24 02:06:33;;;;;;;21.98;4.20;;;10.60;99.90;;;;;;5106643;28;20058;-85
2022/11/24 02:09:03;;;;;;;18.33;3.75;;;10.60;99.90;;;;;;5106220;28;20039;-85
2022/11/24 02:11:36;;;;;;;17.52;3.97;;;10.60;99.90;;;;;;5106051;28;20035;-85
2022/11/24 02:14:04;;;;;;;13.15;3.42;;;10.70;99.90;;;;;;5087744;28;20056;-85
2022/11/24 02:16:32;;;;;;;15.73;3.72;;;10.70;99.90;;;;;;5091560;28;20040;-86
2022/11/24 02:18:59;;;;;;;17.75;3.88;;;10.70;99.90;;;;;;5111478;27;20043;-85
2022/11/24 02:21:26;;;;;;;15.63;3.28;;;10.70;99.90;;;;;;5110020;27;20042;-85
2022/11/24 02:23:59;;;;;;;18.90;3.88;;;10.70;99.90;;;;;;5114640;28;20377;-85
2022/11/24 02:26:39;;;;;;;20.83;4.00;;;10.70;99.90;;;;;;5106124;28;20044;-85
2022/11/24 02:29:06;;;;;;;22.20;3.55;;;10.70;99.90;;;;;;5105244;28;20044;-86
2022/11/24 02:31:33;;;;;;;20.65;3.90;;;10.60;99.90;;;;;;5105379;28;20043;-85
2022/11/24 02:34:00;;;;;;;20.08;3.33;;;10.70;99.90;;;;;;5105932;28;20122;-85
2022/11/24 02:36:26;;;;;;;16.65;3.55;;;10.70;99.90;;;;;;5104038;28;20043;-85
2022/11/24 02:38:53;;;;;;;22.63;4.70;;;10.70;99.90;;;;;;5105692;28;20040;-85
2022/11/24 02:41:22;;;;;;;18.77;3.83;;;10.70;99.90;;;;;;5106431;27;20043;-85
2022/11/24 02:43:53;;;;;;;18.50;3.50;;;10.70;99.90;;;;;;5105621;28;20092;-85
2022/11/24 02:46:20;;;;;;;18.88;3.90;;;10.70;99.90;;;;;;5105690;28;20499;-86
2022/11/24 02:48:47;;;;;;;21.08;3.97;;;10.70;99.90;;;;;;5105772;28;20147;-85
2022/11/24 02:51:14;;;;;;;20.05;4.05;;;10.70;99.90;;;;;;5087682;28;20531;-85
2022/11/24 02:53:41;;;;;;;17.98;3.67;;;10.70;99.90;;;;;;5085575;28;20446;-85
2022/11/24 02:56:08;;;;;;;23.65;3.45;;;10.70;99.90;;;;;;5115015;27;20530;-85
2022/11/24 02:58:35;;;;;;;14.30;3.80;;;11.00;99.90;;;;;;5115709;28;20039;-86
2022/11/24 03:01:04;;;;;;;17.67;3.47;;;10.70;99.90;;;;;;5105312;28;20575;-85
2022/11/24 03:03:31;;;;;;;16.95;3.35;;;10.70;99.90;;;;;;5102680;28;20044;-85
2022/11/24 03:05:58;;;;;;;20.08;4.38;;;10.70;99.90;;;;;;5091585;28;20052;-85
2022/11/24 03:08:25;;;;;;;17.38;3.38;;;10.70;99.90;;;;;;5075755;28;20051;-85
2022/11/24 03:10:51;;;;;;;17.23;3.40;;;10.70;99.90;;;;;;5100426;28;20061;-85
2022/11/24 03:13:18;;;;;;;21.70;4.40;;;10.70;99.90;;;;;;5090732;28;20046;-85
2022/11/24 03:15:45;;;;;;;16.55;3.72;;;10.80;99.90;;;;;;5095090;28;20047;-85
2022/11/24 03:18:13;;;;;;;10.30;3.25;;;10.70;99.90;;;;;;5091343;28;20500;-85
2022/11/24 03:20:40;;;;;;;17.10;3.15;;;10.80;99.90;;;;;;5091598;28;20054;-85
2022/11/24 03:23:07;;;;;;;17.40;3.63;;;10.70;99.90;;;;;;5090670;28;20048;-85
2022/11/24 03:25:34;;;;;;;20.05;3.58;;;10.80;99.90;;;;;;5090368;28;20086;-85
2022/11/24 03:28:01;;;;;;;20.70;3.90;;;10.70;99.90;;;;;;5101175;28;20043;-85
2022/11/24 03:30:28;;;;;;;21.27;4.05;;;10.70;99.90;;;;;;5104522;28;20044;-85
2022/11/24 03:32:55;;;;;;;21.45;3.85;;;10.80;99.90;;;;;;5090836;28;20036;-85
2022/11/24 03:35:24;;;;;;;22.85;3.60;;;10.80;99.90;;;;;;5091105;28;20054;-85
2022/11/24 03:37:51;;;;;;;15.35;3.20;;;10.80;99.90;;;;;;5091444;28;20044;-85
2022/11/24 03:40:18;;;;;;;18.67;3.33;;;10.80;99.90;;;;;;5091281;28;20051;-85
2022/11/24 03:42:45;;;;;;;15.68;3.42;;;10.80;99.90;;;;;;5090974;28;20121;-85
2022/11/24 03:45:12;;;;;;;18.55;3.55;;;10.80;99.90;;;;;;5089197;28;20040;-85
2022/11/24 03:47:39;;;;;;;19.05;3.95;;;10.80;99.90;;;;;;5088836;28;20040;-85
2022/11/24 03:50:06;;;;;;;21.40;3.75;;;10.80;99.90;;;;;;5081853;28;20079;-85
2022/11/24 03:52:34;;;;;;;21.77;3.97;;;10.70;99.90;;;;;;5088864;28;20124;-85
2022/11/24 03:55:01;;;;;;;17.75;3.60;;;10.70;99.90;;;;;;5089290;28;20507;-86
2022/11/24 03:57:28;;;;;;;17.98;3.60;;;10.70;99.90;;;;;;5089322;28;20082;-85
2022/11/24 03:59:55;;;;;;;19.45;4.15;;;10.70;99.90;;;;;;5096219;28;20453;-85
2022/11/24 04:02:22;;;;;;;21.40;4.18;;;10.70;99.90;;;;;;5089283;28;20059;-86
2022/11/24 04:04:51;;;;;;;21.75;3.80;;;10.70;99.90;;;;;;5093300;28;20040;-85
2022/11/24 04:07:18;;;;;;;19.60;4.05;;;10.80;99.90;;;;;;5089814;28;20796;-85
2022/11/24 04:09:46;;;;;;;17.88;3.55;;;10.70;99.90;;;;;;5090692;28;20036;-85
2022/11/24 04:14:58;;;;;;;24.67;4.10;;;10.70;99.90;;;;;;5089187;28;20067;-85
2022/11/24 04:17:25;;;;;;;24.13;3.90;;;10.80;99.90;;;;;;5089736;28;20032;-85
2022/11/24 04:19:51;;;;;;;22.38;3.67;;;10.80;99.90;;;;;;5076296;28;20418;-84
2022/11/24 04:22:18;;;;;;;18.05;4.13;;;10.80;99.90;;;;;;5090671;28;20048;-85
2022/11/24 04:24:47;;;;;;;21.77;4.13;;;10.80;99.90;;;;;;5090210;28;20051;-88
2022/11/24 04:27:14;;;;;;;20.17;3.75;;;10.80;99.90;;;;;;5090310;28;20563;-80
2022/11/24 04:29:41;;;;;;;15.18;3.42;;;10.80;99.90;;;;;;5090111;28;20044;-85
2022/11/24 04:32:08;;;;;;;17.90;3.58;;;10.90;99.90;;;;;;5070374;28;20067;-85
2022/11/24 04:34:35;;;;;;;24.77;4.13;;;10.90;99.90;;;;;;5092670;28;20042;-88
2022/11/24 04:37:02;;;;;;;23.42;5.57;;;10.80;99.90;;;;;;5089830;28;20510;-91
2022/11/24 04:39:30;;;;;;;15.70;3.40;;;10.80;99.90;;;;;;5072251;28;20511;-93
2022/11/24 04:41:59;;;;;;;17.30;3.55;;;10.90;99.90;;;;;;5089758;28;20044;-87
2022/11/24 04:44:25;;;;;;;30.38;4.35;;;10.90;99.90;;;;;;5089749;28;20032;-88
2022/11/24 04:46:52;;;;;;;26.80;4.47;;;10.90;99.90;;;;;;5091040;28;20044;-89
2022/11/24 04:49:19;;;;;;;28.90;4.55;;;10.90;99.90;;;;;;5088334;28;20052;-89
2022/11/24 04:51:46;;;;;;;21.83;4.68;;;10.90;99.90;;;;;;5089379;28;20157;-88
2022/11/24 04:54:14;;;;;;;26.70;5.13;;;10.90;99.90;;;;;;5089676;28;20070;-88
2022/11/24 04:56:41;;;;;;;20.13;4.20;;;10.90;99.90;;;;;;5089791;28;20048;-87
2022/11/24 04:59:13;;;;;;;23.08;4.50;;;10.90;99.90;;;;;;5086761;28;20048;-88
2022/11/24 05:01:40;;;;;;;17.08;3.53;;;10.90;99.90;;;;;;5087146;28;20048;-87
2022/11/24 05:04:07;;;;;;;23.50;4.13;;;11.00;99.90;;;;;;5088468;28;20044;-87
2022/11/24 05:06:34;;;;;;;21.20;4.22;;;11.00;99.90;;;;;;5094075;28;20048;-88
2022/11/24 05:09:20;;;;;;;19.20;3.60;;;11.00;99.90;;;;;;5085580;28;20096;-90
2022/11/24 05:11:47;;;;;;;26.23;4.30;;;11.00;99.90;;;;;;5078156;28;20127;-88
2022/11/24 05:14:15;;;;;;;20.88;4.10;;;11.00;99.90;;;;;;5088388;28;20127;-89
2022/11/24 05:16:42;;;;;;;25.77;5.03;;;11.00;99.90;;;;;;5088558;28;20534;-87
2022/11/24 05:19:09;;;;;;;18.33;3.55;;;11.00;99.90;;;;;;5091164;28;20048;-89
2022/11/24 05:21:36;;;;;;;28.08;4.90;;;11.00;99.90;;;;;;5087217;28;20408;-88
2022/11/24 05:24:04;;;;;;;22.27;4.88;;;11.00;99.90;;;;;;5090306;28;20048;-85
2022/11/24 05:26:31;;;;;;;20.77;4.57;;;11.00;99.90;;;;;;5088992;28;20063;-85
2022/11/24 05:28:58;;;;;;;23.00;4.30;;;11.00;99.90;;;;;;5089300;28;20408;-86
2022/11/24 05:31:26;;;;;;;27.60;4.80;;;11.00;99.90;;;;;;5090772;28;20123;-87
2022/11/24 05:33:53;;;;;;;25.40;5.00;;;11.00;99.90;;;;;;5088676;28;20034;-87
2022/11/24 05:39:00;;;;;;;23.08;3.53;;;11.00;99.90;;;;;;5083804;28;20052;-87
2022/11/24 05:41:27;;;;;;;22.92;3.80;;;11.00;99.90;;;;;;5102121;28;20040;-77
2022/11/24 05:43:54;;;;;;;29.02;5.20;;;11.00;99.90;;;;;;5101843;28;20044;-82
2022/11/24 05:46:21;;;;;;;20.60;4.43;;;11.00;99.90;;;;;;5088539;28;20040;-81
2022/11/24 05:48:50;;;;;;;27.63;3.80;;;11.00;99.90;;;;;;5092884;28;20396;-81
2022/11/24 05:51:17;;;;;;;21.05;4.53;;;11.00;99.90;;;;;;5087330;28;20046;-81
2022/11/24 05:53:44;;;;;;;24.65;4.70;;;11.00;99.90;;;;;;5086410;28;20040;-87
2022/11/24 05:56:11;;;;;;;25.02;4.75;;;11.00;99.90;;;;;;5087975;28;20036;-85
2022/11/24 05:58:37;;;;;;;23.52;3.88;;;11.00;99.90;;;;;;5089455;28;20044;-83
2022/11/24 06:01:06;;;;;;;20.42;3.85;;;11.00;99.90;;;;;;5088264;28;20047;-82
2022/11/24 06:03:33;;;;;;;25.92;4.18;;;11.00;99.90;;;;;;5092333;28;20369;-80
2022/11/24 06:06:02;;;;;;;25.15;5.00;;;11.00;99.90;;;;;;5083861;28;20044;-81
2022/11/24 06:08:29;;;;;;;25.02;4.15;;;11.00;99.90;;;;;;5086470;28;20043;-81
2022/11/24 06:11:15;;;;;;;26.33;4.80;;;11.00;99.90;;;;;;5086841;28;20519;-81
2022/11/24 06:13:47;;;;;;;25.48;5.07;;;11.00;99.90;;;;;;5095815;28;20044;-81
2022/11/24 06:16:14;;;;;;;23.15;3.75;;;11.00;99.90;;;;;;5089961;28;20407;-81
2022/11/24 06:18:41;;;;;;;23.60;4.20;;;11.00;99.90;;;;;;5064574;28;20044;-81
2022/11/24 06:21:10;;;;;;;20.48;4.30;;;11.00;99.90;;;;;;5069271;28;20059;-81
2022/11/24 06:23:37;;;;;;;23.75;4.65;;;11.00;99.90;;;;;;5085161;28;20036;-80
2022/11/24 06:26:04;;;;;;;24.80;4.45;;;11.00;99.90;;;;;;5087216;28;20161;-80
2022/11/24 06:28:31;;;;;;;26.58;4.65;;;11.00;99.90;;;;;;5090406;28;20032;-80
2022/11/24 06:31:01;;;;;;;25.52;5.30;;;11.00;99.90;;;;;;5096668;28;20043;-79
2022/11/24 06:33:32;;;;;;;20.75;3.85;;;11.00;99.90;;;;;;5079152;28;20036;-79
2022/11/24 06:36:02;;;;;;;20.70;4.13;;;11.00;99.90;;;;;;5087876;28;20044;-79
2022/11/24 06:38:31;;;;;;;26.40;4.43;;;11.00;99.90;;;;;;5079139;28;20046;-80
2022/11/24 06:41:01;;;;;;;30.08;4.72;;;11.00;99.90;;;;;;5091984;28;20058;-79
2022/11/24 06:43:30;;;;;;;20.42;4.35;;;11.00;99.90;;;;;;5089814;28;20036;-79
2022/11/24 06:45:57;;;;;;;20.08;3.85;;;11.00;99.90;;;;;;5090473;28;20500;-80
2022/11/24 06:48:25;;;;;;;33.65;5.07;;;11.00;99.90;;;;;;5091464;28;20040;-80
2022/11/24 06:50:52;;;;;;;22.60;3.80;;;11.00;99.90;;;;;;5085939;28;20037;-80
2022/11/24 06:53:19;;;;;;;23.35;4.10;;;11.00;99.90;;;;;;5090993;28;20048;-83
2022/11/24 06:55:48;;;;;;;24.42;3.88;;;11.10;99.90;;;;;;5091670;28;20527;-82
2022/11/24 06:58:14;;;;;;;21.70;3.80;;;11.00;99.90;;;;;;5086653;28;20134;-82
2022/11/24 07:00:41;;;;;;;25.90;4.80;;;11.00;99.90;;;;;;5089200;28;20036;-82
2022/11/24 07:03:14;;;;;;;27.73;3.92;;;11.00;99.90;;;;;;5091211;28;20048;-80
2022/11/24 07:05:41;;;;;;;20.00;3.40;;;11.00;99.90;;;;;;5084669;28;20056;-80
2022/11/24 07:08:08;;;;;;;25.10;4.15;;;11.00;99.90;;;;;;5091725;28;20055;-80
2022/11/24 07:10:35;;;;;;;18.45;3.90;;;11.00;99.90;;;;;;5090889;28;20120;-81
2022/11/24 07:13:03;;;;;;;19.80;3.60;;;11.00;99.90;;;;;;5093070;28;20036;-80
2022/11/24 07:15:30;;;;;;;23.05;3.75;;;10.90;99.90;;;;;;5091521;28;20388;-80
2022/11/24 07:17:57;;;;;;;19.00;3.55;;;10.90;99.90;;;;;;5090419;28;20036;-80
2022/11/24 07:20:24;;;;;;;16.50;3.42;;;10.90;99.90;;;;;;5091582;28;20067;-80
2022/11/24 07:22:55;;;;;;;20.58;3.50;;;10.90;99.90;;;;;;5072429;28;20427;-80
2022/11/24 07:25:22;;;;;;;22.17;4.30;;;10.90;99.90;;;;;;5091350;28;20048;-80
2022/11/24 07:27:49;;;;;;;22.17;3.63;;;10.90;99.90;;;;;;5091724;28;20075;-80
2022/11/24 07:30:17;;;;;;;19.90;3.22;;;10.90;99.90;;;;;;5091852;28;20628;-80
2022/11/24 07:32:44;;;;;;;19.52;3.10;;;11.00;99.90;;;;;;5090709;28;20492;-80
2022/11/24 07:35:11;;;;;;;17.10;2.30;;;11.00;99.90;;;;;;5090009;28;20048;-80
2022/11/24 07:37:38;;;;;;;13.23;2.72;;;11.00;99.90;;;;;;5102923;28;20055;-80
2022/11/24 07:40:06;;;;;;;14.77;3.00;;;11.00;99.90;;;;;;5072681;28;20518;-80
2022/11/24 07:42:36;;;;;;;14.10;2.88;;;11.00;99.90;;;;;;5089775;28;20102;-80
2022/11/24 07:45:03;;;;;;;11.35;2.17;;;11.00;99.90;;;;;;5090489;28;20047;-80
2022/11/24 07:47:31;;;;;;;8.90;2.20;;;11.00;99.90;;;;;;5091219;28;20067;-80
2022/11/24 07:49:58;;;;;;;11.30;2.22;;;11.00;99.90;;;;;;5090399;28;20040;-79
2022/11/24 07:52:25;;;;;;;7.97;1.80;;;11.00;99.90;;;;;;5092806;28;20050;-79
2022/11/24 07:54:52;;;;;;;8.13;2.28;;;11.00;99.90;;;;;;5092378;28;20051;-80
2022/11/24 07:57:19;;;;;;;11.13;2.10;;;11.00;99.90;;;;;;5072708;28;20419;-80
2022/11/24 07:59:46;;;;;;;12.80;1.70;;;11.00;99.90;;;;;;5072638;28;20542;-79
2022/11/24 08:02:13;;;;;;;11.45;2.70;;;11.10;99.90;;;;;;5090981;28;20141;-79
2022/11/24 08:04:41;;;;;;;6.70;1.52;;;11.10;99.90;;;;;;5090903;28;20153;-80
2022/11/24 08:07:08;;;;;;;9.93;2.22;;;11.10;99.90;;;;;;5070151;28;20040;-80
2022/11/24 08:09:35;;;;;;;10.23;2.08;;;11.10;99.90;;;;;;5090386;28;20032;-79
2022/11/24 08:12:02;;;;;;;13.00;1.80;;;11.00;99.90;;;;;;5073334;28;20104;-80
2022/11/24 08:14:29;;;;;;;6.85;1.48;;;11.10;99.90;;;;;;5090548;28;20044;-80
2022/11/24 08:16:57;;;;;;;9.05;1.70;;;11.00;99.90;;;;;;5090585;28;20048;-80
2022/11/24 08:19:24;;;;;;;6.07;1.50;;;11.10;99.90;;;;;;5089556;28;20044;-79
2022/11/24 08:21:53;;;;;;;6.72;1.30;;;11.10;99.90;;;;;;5089486;28;20044;-79
2022/11/24 08:24:20;;;;;;;4.75;1.23;;;11.10;99.90;;;;;;5090045;28;20047;-79
2022/11/24 08:26:47;;;;;;;6.95;1.63;;;11.10;99.90;;;;;;5088568;28;20083;-79
2022/11/24 08:29:14;;;;;;;6.95;1.42;;;11.10;99.90;;;;;;5073139;28;20580;-79
2022/11/24 08:31:40;;;;;;;7.57;1.38;;;11.10;99.90;;;;;;5089766;28;20039;-79
2022/11/24 08:34:08;;;;;;;6.43;1.30;;;11.00;99.90;;;;;;5090382;28;20046;-79
2022/11/24 08:36:35;;;;;;;5.13;1.20;;;11.10;99.90;;;;;;5088322;28;20052;-79
2022/11/24 08:39:03;;;;;;;7.68;1.52;;;11.10;99.90;;;;;;5090249;28;20044;-79
2022/11/24 08:41:32;;;;;;;8.35;1.25;;;11.10;99.90;;;;;;5089273;28;20048;-79
2022/11/24 08:43:59;;;;;;;8.57;1.85;;;11.10;99.90;;;;;;5074018;28;20416;-79
2022/11/24 08:46:25;;;;;;;7.35;1.25;;;11.20;99.90;;;;;;5079583;28;20040;-79
2022/11/24 08:48:54;;;;;;;7.97;1.45;;;11.20;99.90;;;;;;5071700;28;20048;-79
2022/11/24 08:51:22;;;;;;;9.63;1.63;;;11.20;99.90;;;;;;5088710;28;20040;-80
2022/11/24 08:53:49;;;;;;;7.47;1.83;;;11.20;99.90;;;;;;5070412;28;20049;-78
2022/11/24 08:56:17;;;;;;;5.95;1.48;;;11.20;99.90;;;;;;5071458;28;20079;-78
2022/11/24 08:58:44;;;;;;;6.43;1.67;;;11.20;99.90;;;;;;5087613;28;20047;-80
2022/11/24 09:01:12;;;;;;;6.50;1.90;;;11.20;99.90;;;;;;5096872;28;20147;-80
2022/11/24 09:03:39;;;;;;;8.13;1.30;;;11.20;99.90;;;;;;5087798;28;20036;-80
2022/11/24 09:06:07;;;;;;;7.68;1.73;;;11.10;99.90;;;;;;5088956;28;20126;-80
2022/11/24 09:08:35;;;;;;;9.07;1.80;;;11.20;99.90;;;;;;5071248;28;20597;-80
2022/11/24 09:11:03;;;;;;;7.38;1.40;;;11.10;99.90;;;;;;5088512;28;20048;-80
2022/11/24 09:13:31;;;;;;;7.10;1.58;;;11.20;99.90;;;;;;5088450;28;20068;-80
2022/11/24 09:16:03;;;;;;;7.57;1.67;;;11.20;99.90;;;;;;5097459;28;20039;-80
2022/11/24 09:18:30;;;;;;;7.40;1.75;;;11.20;99.90;;;;;;5098711;28;20040;-80
2022/11/24 09:21:08;;;;;;;11.82;1.92;;;11.10;99.90;;;;;;5089558;28;20040;-80
2022/11/24 09:23:35;;;;;;;9.95;1.80;;;11.10;99.90;;;;;;5089681;28;20055;-80
2022/11/24 09:26:04;;;;;;;15.35;1.70;;;11.20;99.90;;;;;;5089358;28;20048;-80
2022/11/24 09:28:33;;;;;;;11.38;2.17;;;11.20;99.90;;;;;;5089072;28;20137;-80
2022/11/24 09:31:04;;;;;;;10.45;2.33;;;11.20;99.90;;;;;;5087207;28;20585;-80
2022/11/24 09:33:31;;;;;;;;;;;11.20;99.90;;;;;;5086527;28;20496;-80
2022/11/24 09:35:58;;;;;;;11.27;2.20;;;11.20;99.90;;;;;;5089094;28;19924;-81
2022/11/24 09:38:25;;;;;;;9.05;1.95;;;11.30;99.90;;;;;;5089003;28;20553;-80
2022/11/24 09:40:53;;;;;;;12.68;2.38;;;11.30;99.90;;;;;;5089095;28;20040;-80
2022/11/24 09:43:23;;;;;;;13.68;2.20;;;11.30;99.90;;;;;;5088259;28;20044;-80
2022/11/24 09:46:00;;;;;;;9.32;2.05;;;11.30;99.90;;;;;;5087677;28;20028;-81
2022/11/24 09:48:30;;;;;;;13.55;2.20;;;11.30;99.90;;;;;;5085828;28;20040;-80
2022/11/24 09:50:58;;;;;;;10.70;2.37;;;11.30;99.90;;;;;;5088576;28;20138;-80
2022/11/24 09:53:31;;;;;;;9.93;2.28;;;11.30;99.90;;;;;;5087914;28;20051;-80
2022/11/24 09:56:00;;;;;;;12.23;2.60;;;11.40;99.90;;;;;;5088868;28;20071;-80
2022/11/24 09:58:35;;;;;;;14.20;2.63;;;11.40;99.90;;;;;;5088988;28;20048;-81
2022/11/24 10:01:08;;;;;;;12.35;2.40;;;11.40;99.90;;;;;;5088767;28;20044;-80
2022/11/24 10:03:37;;;;;;;16.90;2.38;;;11.40;99.90;;;;;;5086410;28;20788;-81
2022/11/24 10:06:15;;;;;;;12.98;2.80;;;11.40;99.90;;;;;;5089017;28;20043;-81
2022/11/24 10:08:53;;;;;;;9.63;2.50;;;11.40;99.90;;;;;;5070404;28;20042;-81
2022/11/24 10:11:32;;;;;;;15.43;3.08;;;11.40;99.90;;;;;;5088467;28;20052;-81
2022/11/24 10:14:31;;;;;;;14.23;3.25;;;11.40;99.90;;;;;;5088497;28;20068;-81
2022/11/24 10:17:05;;;;;;;12.10;3.13;;;11.40;99.90;;;;;;5086086;28;20139;-81
2022/11/24 10:19:40;;;;;;;12.30;2.78;;;11.50;99.90;;;;;;5090634;28;20048;-79
2022/11/24 10:22:21;;;;;;;15.32;2.55;;;11.50;99.90;;;;;;5091825;28;20040;-79
2022/11/24 10:25:09;;;;;;;15.32;3.05;;;11.50;99.90;;;;;;5095357;28;20040;-79
2022/11/24 10:27:40;;;;;;;18.75;3.22;;;11.60;99.90;;;;;;5092594;28;20071;-79
2022/11/24 10:30:17;;;;;;;12.02;2.47;;;11.50;99.90;;;;;;5092036;28;20043;-79
2022/11/24 10:32:53;;;;;;;13.85;2.90;;;11.60;99.90;;;;;;5092113;28;20116;-80
2022/11/24 10:35:22;;;;;;;10.63;2.40;;;11.60;99.90;;;;;;5082619;28;20511;-80
2022/11/24 10:37:54;;;;;;;16.35;3.28;;;11.60;99.90;;;;;;5084906;28;20422;-79
2022/11/24 10:40:28;;;;;;;14.18;2.88;;;11.60;99.90;;;;;;5102729;28;20178;-80
2022/11/24 10:42:54;;;;;;;18.48;3.00;;;11.70;99.90;;;;;;5085812;28;20067;-80
2022/11/24 10:45:22;;;;;;;14.05;2.95;;;11.70;99.90;;;;;;5092131;28;20044;-80
2022/11/24 10:47:51;;;;;;;12.65;2.95;;;11.70;99.90;;;;;;5092346;28;20044;-80
2022/11/24 10:50:21;;;;;;;16.95;3.03;;;11.70;99.90;;;;;;5073294;28;20757;-80
2022/11/24 10:52:54;;;;;;;12.07;2.83;;;11.70;99.90;;;;;;5089560;28;20044;-80
2022/11/24 10:55:21;;;;;;;12.00;2.60;;;11.70;99.90;;;;;;5094371;28;20559;-80
2022/11/24 10:57:48;;;;;;;10.48;2.83;;;11.70;99.90;;;;;;5091564;28;20048;-80
2022/11/24 11:00:31;;;;;;;12.82;3.10;;;11.80;99.90;;;;;;5091122;28;20050;-80
2022/11/24 11:03:16;;;;;;;13.15;2.60;;;11.80;99.90;;;;;;5085722;28;20134;-79
2022/11/24 11:05:47;;;;;;;16.00;2.88;;;11.80;99.90;;;;;;5091752;28;20046;-80
2022/11/24 11:08:24;;;;;;;11.45;2.90;;;11.80;99.90;;;;;;5090763;28;20048;-79
2022/11/24 11:10:52;;;;;;;13.23;2.78;;;11.80;99.90;;;;;;5090851;28;20051;-80
2022/11/24 11:13:24;;;;;;;10.98;2.72;;;11.80;99.90;;;;;;5090905;28;20052;-79
2022/11/24 11:15:51;;;;;;;15.35;2.80;;;11.90;99.90;;;;;;5091804;28;20095;-80
2022/11/24 11:18:20;;;;;;;15.75;3.03;;;11.90;99.90;;;;;;5091384;28;20055;-79
2022/11/24 11:20:52;;;;;;;14.05;2.92;;;11.90;99.90;;;;;;5091165;28;20503;-79
2022/11/24 11:23:25;;;;;;;12.65;2.47;;;11.90;99.90;;;;;;5088746;28;20067;-79
2022/11/24 11:26:17;;;;;;;12.80;2.65;;;11.90;99.90;;;;;;5071902;28;20496;-80
2022/11/24 11:28:57;;;;;;;15.82;3.25;;;11.90;99.90;;;;;;5088178;28;20048;-79
2022/11/24 11:31:24;;;;;;;15.45;3.33;;;11.90;99.90;;;;;;5074289;28;20142;-80
2022/11/24 11:34:01;;;;;;;15.00;3.00;;;11.90;99.90;;;;;;5090787;28;20040;-80
2022/11/24 11:36:28;;;;;;;12.32;2.60;;;11.90;99.90;;;;;;5091272;28;20042;-81
2022/11/24 11:38:55;;;;;;;13.50;2.72;;;11.90;99.90;;;;;;5088538;28;20100;-79
2022/11/24 11:41:28;;;;;;;11.80;2.80;;;12.00;99.90;;;;;;5098189;28;20044;-78
2022/11/24 11:44:05;;;;;;;19.65;3.03;;;12.00;99.90;;;;;;5090540;28;20048;-85
2022/11/24 11:46:33;;;;;;;17.25;3.00;;;12.20;99.90;;;;;;5091143;28;20483;-83
2022/11/24 11:49:01;;;;;;;15.05;2.63;;;12.00;99.90;;;;;;5090203;28;20044;-83
2022/11/24 11:51:39;;;;;;;18.15;3.15;;;12.10;99.90;;;;;;5089601;28;20054;-90
2022/11/24 11:54:11;;;;;;;18.65;3.05;;;12.00;99.90;;;;;;5070758;28;20045;-84
2022/11/24 11:56:43;;;;;;;16.92;3.00;;;12.00;99.90;;;;;;5083198;28;20040;-83
2022/11/24 11:59:21;;;;;;;16.67;2.85;;;12.10;99.90;;;;;;5090585;28;20563;-85
2022/11/24 12:02:16;;;;;;;14.68;2.92;;;12.10;99.90;;;;;;5098658;28;20636;-82
2022/11/24 12:04:52;;;;;;;17.48;3.20;;;12.10;99.90;;;;;;5090731;28;20048;-84
2022/11/24 12:07:45;;;;;;;15.73;3.28;;;12.10;99.90;;;;;;5088039;28;20059;-81
2022/11/24 12:10:18;;;;;;;24.13;3.38;;;12.10;99.90;;;;;;5069022;28;20048;-91
2022/11/24 12:12:55;;;;;;;14.25;2.53;;;12.20;99.90;;;;;;5089915;28;20126;-91
2022/11/24 12:15:30;;;;;;;15.52;3.00;;;12.20;99.90;;;;;;5084878;28;20032;-84
2022/11/24 12:18:09;;;;;;;16.27;2.88;;;12.20;99.90;;;;;;5086058;28;20089;-83
2022/11/24 12:20:51;;;;;;;19.95;3.05;;;12.20;99.90;;;;;;5081741;28;20060;-82
2022/11/24 12:23:22;;;;;;;19.45;2.88;;;12.20;99.90;;;;;;5089370;28;20043;-83
2022/11/24 12:25:57;;;;;;;16.70;3.42;;;12.20;99.90;;;;;;5087647;28;20085;-83
2022/11/24 12:28:33;;;;;;;18.92;3.60;;;12.30;99.90;;;;;;5087464;28;20043;-82
2022/11/24 12:31:05;;;;;;;12.85;3.55;;;12.20;99.90;;;;;;5091947;28;20393;-82
2022/11/24 12:33:59;;;;;;;15.50;3.13;;;12.30;99.90;;;;;;5077423;28;20666;-83
2022/11/24 12:36:41;;;;;;;22.48;4.00;;;12.30;99.90;;;;;;5086891;28;20066;-82
2022/11/24 12:39:18;;;;;;;17.25;3.05;;;12.40;99.90;;;;;;5096421;28;20060;-83
2022/11/24 12:41:54;;;;;;;16.25;2.83;;;12.40;99.90;;;;;;5088082;28;20139;-83
2022/11/24 12:44:49;;;;;;;20.40;3.80;;;12.40;99.90;;;;;;5073023;28;20044;-83
2022/11/24 12:47:18;;;;;;;18.15;3.50;;;12.40;99.90;;;;;;5091958;28;20127;-83
2022/11/24 12:49:56;;;;;;;18.70;3.72;;;12.40;99.90;;;;;;5097870;28;20067;-83
2022/11/24 12:52:26;;;;;;;18.23;3.42;;;12.40;99.90;;;;;;5087680;28;20075;-84
2022/11/24 12:54:54;;;;;;;16.63;3.45;;;12.40;99.90;;;;;;5090292;28;20048;-83
2022/11/24 12:57:25;;;;;;;23.25;3.53;;;12.40;99.90;;;;;;5088307;28;20035;-83
2022/11/24 12:59:58;;;;;;;20.55;3.40;;;12.30;99.90;;;;;;5094996;28;20666;-83